This is the latest recevied weather packets stored in our database for station/object WA4ORT. If no packets are shown the sender has not sent any weather packets the latest 10 day(s).
| Time | Temp. | Humidity | Pressure | Rain* | Wind** | Luminosity | Snow |
|---|---|---|---|---|---|---|---|
| 1777597728 | 19.44° C | - | - | 0 mm | 0.89 m/s, 266° | - | - |
| 1777596833 | 19.44° C | - | - | 0 mm | 0 m/s | - | - |
| 1777595939 | 20° C | - | - | 0 mm | 1.34 m/s, 294° | - | - |
| 1777595041 | 20° C | - | - | 0 mm | 0.89 m/s, 288° | - | - |
| 1777594146 | 20.56° C | - | - | 0 mm | 1.79 m/s, 294° | - | - |
| 1777593251 | 21.11° C | - | - | 0 mm | 2.24 m/s, 298° | - | - |
| 1777592353 | 21.11° C | - | - | 0 mm | 2.68 m/s, 318° | - | - |
| 1777591459 | 21.67° C | - | - | 0 mm | 3.13 m/s, 301° | - | - |
| 1777590564 | 21.67° C | - | - | 0 mm | 3.58 m/s, 305° | - | - |
| 1777589666 | 22.22° C | - | - | 0 mm | 2.68 m/s, 288° | - | - |
| 1777588772 | 22.22° C | - | - | 0 mm | 2.68 m/s, 298° | - | - |
| 1777587877 | 22.78° C | - | - | 0 mm | 3.58 m/s, 298° | - | - |
| 1777586979 | 22.78° C | - | - | 0 mm | 2.68 m/s, 307° | - | - |
| 1777586086 | 23.33° C | - | - | 0 mm | 3.58 m/s, 318° | - | - |
| 1777585190 | 23.33° C | - | - | 0 mm | 1.79 m/s, 260° | - | - |
| 1777584292 | 23.33° C | - | - | 0 mm | 3.13 m/s, 281° | - | - |
| 1777583397 | 23.33° C | - | - | 0 mm | 3.13 m/s, 252° | - | - |
| 1777582504 | 23.33° C | - | - | 0 mm | 3.13 m/s, 277° | - | - |
| 1777581606 | 22.78° C | - | - | 0 mm | 3.13 m/s, 307° | - | - |
| 1777580711 | 23.33° C | - | - | 0 mm | 2.68 m/s, 267° | - | - |
| 1777579816 | 23.33° C | - | - | 0 mm | 3.58 m/s, 280° | - | - |
| 1777578918 | 23.33° C | - | - | 0 mm | 3.58 m/s, 294° | - | - |
| 1777578023 | 23.33° C | - | - | 0 mm | 3.13 m/s, 283° | - | - |
| 1777577129 | 23.33° C | - | - | 0 mm | 4.02 m/s, 294° | - | - |
| 1777576231 | 23.33° C | - | - | 0 mm | 2.68 m/s, 277° | - | - |
* Rain latest hour (hover to see other rain measurements)
** Current wind speed in m/s (hover to see current wind gust speed)